Time;durP1;ratioP1;P1;durP2;ratioP2;P2;SDS_P1;SDS_P2;PMS_P1;PMS_P2;Temp;Humidity;BMP_temperature;BMP_pressure;BME280_temperature;BME280_humidity;BME280_pressure;Samples;Min_cycle;Max_cycle;Signal;HPM_P1;HPM_P2
2022/02/25 00:00:15;;;;;;;59.83;55.83;;;;;;;4.53;100.00;101850.52;1959543;71;39617;-78
2022/02/25 00:05:58;;;;;;;62.33;58.37;;;;;;;4.49;100.00;101836.86;1854896;76;86707;-79
2022/02/25 00:11:42;;;;;;;62.80;58.40;;;;;;;4.47;100.00;101828.53;1860704;75;86105;-79
2022/02/25 00:17:26;;;;;;;63.30;59.20;;;;;;;4.36;100.00;101839.72;1917752;74;85485;-76
2022/02/25 00:23:11;;;;;;;62.43;58.33;;;;;;;4.45;100.00;101833.44;1927219;71;39793;-77
2022/02/25 00:28:55;;;;;;;60.37;56.13;;;;;;;4.46;100.00;101840.07;1893158;74;86364;-78
2022/02/25 00:34:39;;;;;;;60.67;56.30;;;;;;;4.48;100.00;101836.58;1890850;75;86131;-75
2022/02/25 00:40:24;;;;;;;58.87;54.50;;;;;;;4.56;100.00;101859.70;1933410;72;86386;-80
2022/02/25 00:46:08;;;;;;;59.57;55.33;;;;;;;4.55;100.00;101870.39;1975436;71;39568;-80
2022/02/25 00:51:53;;;;;;;59.13;55.03;;;;;;;4.70;100.00;101863.75;1896064;74;86514;-77
2022/02/25 00:57:39;;;;;;;59.27;55.17;;;;;;;4.72;100.00;101855.56;1883956;74;85526;-77
2022/02/25 01:03:25;;;;;;;61.83;57.43;;;;;;;4.85;100.00;101856.84;1911287;73;86480;-79
2022/02/25 01:09:08;;;;;;;61.60;57.30;;;;;;;4.95;100.00;101857.20;1984320;71;39573;-77
2022/02/25 01:14:52;;;;;;;59.73;55.73;;;;;;;4.96;100.00;101860.81;1884300;74;86661;-77
2022/02/25 01:20:37;;;;;;;60.53;56.33;;;;;;;5.07;100.00;101850.96;1911637;73;85446;-77
2022/02/25 01:26:21;;;;;;;59.30;55.47;;;;;;;5.06;100.00;101866.64;1815825;78;86549;-79
2022/02/25 01:32:06;;;;;;;60.83;56.83;;;;;;;5.14;100.00;101864.13;1837750;76;86033;-77
2022/02/25 01:37:52;;;;;;;61.70;57.30;;;;;;;5.12;100.00;101856.11;1800663;78;86628;-77
2022/02/25 01:43:38;;;;;;;63.47;58.87;;;;;;;5.11;100.00;101848.91;1905815;74;86151;-78
2022/02/25 01:49:23;;;;;;;61.40;57.07;;;;;;;5.02;100.00;101858.52;1906416;72;86371;-79
2022/02/25 01:52:31;;;;;;;60.63;56.30;;;;;;;5.01;100.00;101870.59;1849350;75;934909;-78
2022/02/25 01:58:16;;;;;;;61.23;57.07;;;;;;;5.07;100.00;101854.56;1920460;71;39555;-78
2022/02/25 02:04:00;;;;;;;60.60;56.60;;;;;;;5.15;100.00;101857.56;1845508;76;85284;-76
2022/02/25 02:09:43;;;;;;;60.47;56.23;;;;;;;5.15;100.00;101852.91;1877494;74;85305;-77
2022/02/25 02:15:27;;;;;;;61.60;57.57;;;;;;;5.18;100.00;101859.89;1921140;72;86515;-78
2022/02/25 02:21:11;;;;;;;61.17;56.90;;;;;;;5.26;100.00;101863.73;1987414;71;39656;-77
2022/02/25 02:26:56;;;;;;;60.70;56.80;;;;;;;5.32;100.00;101887.61;1828191;76;85582;-78
2022/02/25 02:32:41;;;;;;;60.83;56.63;;;;;;;5.38;100.00;101884.81;1888844;75;86049;-79
2022/02/25 02:38:26;;;;;;;60.07;55.73;;;;;;;5.37;100.00;101899.65;1913209;74;86417;-78
2022/02/25 02:44:11;;;;;;;60.03;55.83;;;;;;;5.40;100.00;101900.56;1986252;71;39623;-78
2022/02/25 02:49:55;;;;;;;60.33;56.33;;;;;;;5.43;100.00;101908.94;1851971;76;86203;-77
2022/02/25 02:55:41;;;;;;;63.13;58.63;;;;;;;5.43;100.00;101926.28;1882133;75;86633;-77
2022/02/25 03:01:26;;;;;;;62.07;57.97;;;;;;;5.46;100.00;101927.23;1908713;72;85470;-77
2022/02/25 03:07:10;;;;;;;61.70;57.27;;;;;;;5.50;100.00;101939.48;1978419;71;39773;-77
2022/02/25 03:12:54;;;;;;;62.67;58.37;;;;;;;5.43;100.00;101944.76;1881509;74;86408;-78
2022/02/25 03:18:39;;;;;;;65.03;60.50;;;;;;;5.41;100.00;101957.89;1875849;75;85393;-77
2022/02/25 03:24:23;;;;;;;63.60;59.43;;;;;;;5.36;100.00;101972.34;1920561;72;86476;-77
2022/02/25 03:30:09;;;;;;;61.83;57.40;;;;;;;5.37;100.00;101978.17;1803519;78;85614;-77
2022/02/25 03:35:53;;;;;;;62.80;58.07;;;;;;;5.39;100.00;101980.16;1893699;74;86251;-78
2022/02/25 03:41:37;;;;;;;62.60;58.47;;;;;;;5.42;100.00;101987.14;1891655;74;86714;-78
2022/02/25 03:47:23;;;;;;;64.43;59.90;;;;;;;5.33;100.00;101994.84;1923252;73;86360;-79
2022/02/25 03:53:07;;;;;;;63.20;58.63;;;;;;;5.35;100.00;102005.61;1810726;78;85938;-78
2022/02/25 03:58:52;;;;;;;64.77;60.13;;;;;;;5.38;100.00;102012.92;1805280;78;86060;-77
2022/02/25 04:04:35;;;;;;;61.20;57.40;;;;;;;5.38;100.00;102025.33;1956876;72;86149;-76
2022/02/25 04:10:18;;;;;;;62.80;58.30;;;;;;;5.48;100.00;102038.59;1983928;71;39651;-77
2022/02/25 04:16:02;;;;;;;60.80;56.80;;;;;;;5.38;100.00;102031.37;1890063;74;85694;-77
2022/02/25 04:21:47;;;;;;;63.07;58.90;;;;;;;5.47;100.00;102043.28;1912093;73;86154;-78
2022/02/25 04:27:31;;;;;;;61.73;57.77;;;;;;;5.60;100.00;102052.52;1911939;72;86359;-76
2022/02/25 04:33:17;;;;;;;61.90;57.53;;;;;;;5.56;100.00;102054.03;1986529;71;39592;-76
2022/02/25 04:39:01;;;;;;;62.50;58.60;;;;;;;5.52;100.00;102054.17;1845465;76;85516;-77
2022/02/25 04:44:45;;;;;;;60.27;56.07;;;;;;;5.43;100.00;102064.05;1887893;74;86615;-76
2022/02/25 04:50:30;;;;;;;60.93;56.97;;;;;;;5.52;100.00;102077.59;1911585;74;85736;-77
2022/02/25 04:56:15;;;;;;;61.27;56.73;;;;;;;5.52;100.00;102085.30;1983805;71;39602;-77
2022/02/25 05:01:59;;;;;;;60.50;56.27;;;;;;;5.50;100.00;102099.33;1932048;71;86321;-77
2022/02/25 05:07:41;;;;;;;60.90;56.70;;;;;;;5.53;100.00;102105.44;1887866;74;85274;-77
2022/02/25 05:13:26;;;;;;;61.03;56.63;;;;;;;5.52;100.00;102118.37;1910914;72;85400;-76
2022/02/25 05:25:13;;;;;;;61.43;57.13;;;;;;;5.42;100.00;102129.90;1980948;71;40512;-77
2022/02/25 05:30:57;;;;;;;60.47;56.10;;;;;;;5.42;100.00;102145.58;1842823;76;86505;-79
2022/02/25 05:36:41;;;;;;;61.50;57.33;;;;;;;5.52;100.00;102136.29;1892111;75;86068;-76
2022/02/25 05:42:25;;;;;;;60.90;56.47;;;;;;;5.45;100.00;102151.49;1914341;73;86286;-77
2022/02/25 05:48:09;;;;;;;61.83;57.60;;;;;;;5.40;100.00;102150.45;1953719;71;39617;-78
2022/02/25 05:53:56;;;;;;;62.70;58.50;;;;;;;5.41;100.00;102170.06;1879182;75;85599;-76
2022/02/25 05:59:40;;;;;;;61.93;57.63;;;;;;;5.45;100.00;102161.14;1881441;75;85550;-76
2022/02/25 06:05:25;;;;;;;62.50;58.00;;;;;;;5.38;100.00;102167.22;1916887;74;86235;-78
2022/02/25 06:11:09;;;;;;;62.57;58.20;;;;;;;5.32;100.00;102186.52;1984133;71;40419;-77
2022/02/25 06:16:53;;;;;;;62.00;57.50;;;;;;;5.38;100.00;102190.64;1882937;74;86216;-78
2022/02/25 06:22:37;;;;;;;61.97;57.77;;;;;;;5.37;100.00;102200.50;1913972;73;85369;-76
2022/02/25 06:28:23;;;;;;;64.17;59.37;;;;;;;5.23;100.00;102210.71;1922147;72;85301;-77
2022/02/25 06:34:07;;;;;;;62.73;58.10;;;;;;;5.21;100.00;102215.61;1810729;78;85662;-77
2022/02/25 06:39:51;;;;;;;62.03;57.33;;;;;;;5.23;100.00;102214.84;1781814;78;85300;-78
2022/02/25 06:45:35;;;;;;;61.43;57.10;;;;;;;5.26;100.00;102214.40;1943847;72;85402;-76
2022/02/25 06:51:21;;;;;;;61.87;57.13;;;;;;;5.24;100.00;102220.67;1984780;71;39464;-78
2022/02/25 06:57:06;;;;;;;60.90;56.03;;;;;;;5.24;100.00;102230.31;1840999;75;85313;-78
2022/02/25 07:02:51;;;;;;;58.60;54.40;;;;;;;5.20;100.00;102246.11;1810282;78;86596;-82
2022/02/25 07:08:33;;;;;;;62.53;57.73;;;;;;;5.21;100.00;102259.69;1909195;74;85972;-76
2022/02/25 07:14:18;;;;;;;62.43;57.60;;;;;;;5.24;100.00;102277.15;1973433;71;39743;-75
2022/02/25 07:20:02;;;;;;;62.57;57.97;;;;;;;5.27;100.00;102295.14;1961233;72;85404;-78
2022/02/25 07:25:46;;;;;;;63.27;59.03;;;;;;;5.20;100.00;102297.92;1881106;73;86344;-77
2022/02/25 07:31:31;;;;;;;61.93;57.50;;;;;;;5.27;100.00;102311.14;1923138;73;86137;-76
2022/02/25 07:37:15;;;;;;;62.73;58.17;;;;;;;5.32;100.00;102327.03;1986196;71;39478;-76
2022/02/25 07:42:59;;;;;;;62.23;57.33;;;;;;;5.32;100.00;102339.44;1919890;73;85317;-75
2022/02/25 07:48:44;;;;;;;59.77;55.07;;;;;;;5.32;100.00;102347.70;1880892;74;86297;-77
2022/02/25 07:54:31;;;;;;;59.30;54.70;;;;;;;5.44;100.00;102368.87;1927262;73;85294;-78
2022/02/25 08:00:17;;;;;;;62.23;57.17;;;;;;;5.53;100.00;102370.02;1984193;71;39540;-77
2022/02/25 08:06:00;;;;;;;62.27;57.27;;;;;;;5.63;100.00;102384.22;1901998;73;85556;-73
2022/02/25 08:11:44;;;;;;;60.83;55.77;;;;;;;5.67;100.00;102390.47;1885643;74;86048;-72
2022/02/25 08:17:29;;;;;;;56.43;52.50;;;;;;;5.92;100.00;102401.67;1927171;71;86385;-75
2022/02/25 08:23:13;;;;;;;58.77;54.60;;;;;;;6.12;100.00;102431.41;1981375;71;39853;-75
2022/02/25 08:28:57;;;;;;;61.40;56.93;;;;;;;6.27;100.00;102451.33;1840797;76;85331;-75
2022/02/25 08:34:42;;;;;;;56.90;52.83;;;;;;;6.39;100.00;102469.43;1879233;73;85665;-75
2022/02/25 08:40:27;;;;;;;59.33;55.20;;;;;;;6.52;100.00;102479.05;1927904;73;86063;-75
2022/02/25 08:46:12;;;;;;;55.73;51.37;;;;;;;6.62;100.00;102491.01;1978909;71;39765;-77
2022/02/25 08:51:56;;;;;;;55.63;51.20;;;;;;;6.81;100.00;102500.57;1840479;76;86562;-77
2022/02/25 08:57:42;;;;;;;55.80;51.80;;;;;;;6.81;100.00;102515.76;1871459;75;86374;-76
2022/02/25 09:03:29;;;;;;;54.83;50.87;;;;;;;7.18;100.00;102511.32;1903020;72;86299;-75
2022/02/25 09:09:12;;;;;;;53.47;49.90;;;;;;;7.28;100.00;102514.42;1985275;71;39515;-75
2022/02/25 09:14:56;;;;;;;55.10;51.17;;;;;;;7.53;100.00;102515.83;1824912;76;86620;-76
2022/02/25 09:20:43;;;;;;;52.43;48.30;;;;;;;7.62;100.00;102519.17;1881530;75;85444;-74
2022/02/25 09:26:27;;;;;;;50.77;47.30;;;;;;;7.84;100.00;102523.24;1913158;74;86086;-75
2022/02/25 09:32:13;;;;;;;54.83;51.10;;;;;;;8.06;100.00;102525.91;1985753;71;39775;-76
2022/02/25 09:37:57;;;;;;;53.10;49.00;;;;;;;8.09;100.00;102534.29;1839918;76;86010;-77
2022/02/25 09:43:41;;;;;;;52.83;49.33;;;;;;;8.28;100.00;102538.80;1877387;75;85725;-75
2022/02/25 09:49:25;;;;;;;48.27;45.17;;;;;;;8.42;100.00;102557.00;1917722;74;86517;-75
2022/02/25 09:55:12;;;;;;;52.83;49.50;;;;;;;8.49;100.00;102551.38;1982818;71;39568;-76
2022/02/25 10:00:58;;;;;;;63.97;52.33;;;;;;;8.64;100.00;102574.84;1844502;76;86574;-74
2022/02/25 10:06:42;;;;;;;45.87;42.80;;;;;;;8.80;100.00;102580.86;1885159;74;85997;-77
2022/02/25 10:12:30;;;;;;;43.63;40.40;;;;;;;8.55;100.00;102585.94;1934902;73;86512;-74
2022/02/25 10:18:16;;;;;;;37.77;35.07;;;;;;;8.76;100.00;102596.26;1938138;71;39803;-75
2022/02/25 10:27:23;;;;;;;34.23;31.93;;;;;;;8.82;100.00;102605.86;1973451;71;39768;-74
2022/02/25 10:33:16;;;;;;;34.67;32.10;;;;;;;8.85;100.00;102625.36;1986043;71;39529;-75
2022/02/25 10:39:03;;;;;;;36.03;33.33;;;;;;;8.90;100.00;102636.03;1828987;76;86349;-74
2022/02/25 10:44:49;;;;;;;33.33;30.53;;;;;;;9.04;100.00;102641.74;1884984;73;86686;-76
2022/02/25 10:50:47;;;;;;;34.07;31.70;;;;;;;9.21;100.00;102661.91;1930643;73;86654;-78
2022/02/25 10:56:44;;;;;;;32.93;30.53;;;;;;;9.26;100.00;102678.70;1906632;73;85994;-77
2022/02/25 11:02:32;;;;;;;31.63;29.47;;;;;;;9.31;100.00;102669.16;1908969;74;86165;-79
2022/02/25 11:08:16;;;;;;;32.07;29.93;;;;;;;9.41;100.00;102679.98;1976550;71;40282;-74
2022/02/25 11:14:04;;;;;;;29.10;27.10;;;;;;;9.55;100.00;102673.19;1842778;76;86101;-82
2022/02/25 11:19:50;;;;;;;29.40;27.30;;;;;;;9.46;100.00;102677.91;1884029;74;86325;-73
2022/02/25 11:25:37;;;;;;;27.83;25.73;;;;;;;9.65;100.00;102687.05;1926410;71;86125;-76
2022/02/25 11:31:26;;;;;;;27.20;25.30;;;;;;;9.73;100.00;102698.67;1936726;73;86129;-76
2022/02/25 11:37:12;;;;;;;23.37;21.70;;;;;;;9.73;100.00;102698.67;1976646;71;39661;-76
2022/02/25 11:43:10;;;;;;;22.70;21.03;;;;;;;9.81;100.00;102704.43;1843198;76;86059;-72
2022/02/25 11:49:12;;;;;;;21.90;20.07;;;;;;;9.95;100.00;102717.05;1838606;76;86030;-75
2022/02/25 11:54:57;;;;;;;17.27;16.17;;;;;;;10.12;100.00;102726.95;1851172;76;86265;-73
2022/02/25 12:01:06;;;;;;;17.77;16.37;;;;;;;10.06;100.00;102736.52;1875921;73;86286;-76
2022/02/25 12:07:05;;;;;;;18.07;16.57;;;;;;;9.93;100.00;102729.77;1807580;78;85952;-72
2022/02/25 12:13:03;;;;;;;17.03;15.77;;;;;;;10.19;100.00;102745.77;1815721;76;86668;-71
2022/02/25 12:18:49;;;;;;;17.80;16.30;;;;;;;9.92;100.00;102748.92;1876104;75;86565;-72
2022/02/25 12:24:33;;;;;;;17.03;15.83;;;;;;;9.87;100.00;102740.98;1904042;73;86017;-79
2022/02/25 12:30:37;;;;;;;17.13;15.73;;;;;;;10.07;100.00;102741.53;1979395;71;39711;-78
2022/02/25 12:36:47;;;;;;;15.47;14.43;;;;;;;10.31;100.00;102739.73;1877158;75;85543;-79
2022/02/25 12:42:33;;;;;;;13.93;12.73;;;;;;;10.21;100.00;102754.19;1915093;74;86103;-70
2022/02/25 12:48:18;;;;;;;14.13;12.90;;;;;;;10.15;100.00;102748.68;1980288;71;39988;-78
2022/02/25 12:54:05;;;;;;;12.83;12.00;;;;;;;10.39;100.00;102754.66;1853694;76;86380;-76
2022/02/25 12:59:53;;;;;;;13.63;12.40;;;;;;;10.59;100.00;102776.03;1808852;78;86206;-75
2022/02/25 13:05:37;;;;;;;13.17;12.17;;;;;;;10.58;100.00;102757.66;1917482;74;86069;-69
2022/02/25 13:11:27;;;;;;;15.07;13.90;;;;;;;10.91;100.00;102771.01;1914869;72;86178;-71
2022/02/25 13:14:12;;;;;;;16.45;15.25;;;;;;;10.85;100.00;102768.64;1819443;75;937982;-71
2022/02/25 13:19:58;;;;;;;12.80;11.90;;;;;;;12.33;100.00;102754.03;1841033;75;86590;-76
2022/02/25 13:25:44;;;;;;;12.30;11.40;;;;;;;10.98;100.00;102770.88;1877054;74;86326;-74
2022/02/25 13:31:29;;;;;;;12.77;11.70;;;;;;;10.88;100.00;102772.32;1917484;72;86414;-76
2022/02/25 13:37:14;;;;;;;13.17;11.97;;;;;;;10.96;100.00;102779.45;1974392;71;39634;-74
2022/02/25 13:42:58;;;;;;;12.23;11.23;;;;;;;11.12;100.00;102777.91;1815163;76;86459;-76
2022/02/25 13:55:05;;;;;;;12.97;11.77;;;;;;;11.35;100.00;102784.83;1836634;76;86346;-75
2022/02/25 14:00:49;;;;;;;12.27;11.37;;;;;;;11.40;100.00;102796.08;1871316;75;86656;-76
2022/02/25 14:06:36;;;;;;;11.40;10.60;;;;;;;11.25;100.00;102804.09;1918136;73;85433;-73
2022/02/25 14:12:31;;;;;;;12.47;11.37;;;;;;;11.23;100.00;102799.30;1915833;73;86068;-76
2022/02/25 14:18:18;;;;;;;12.53;11.30;;;;;;;11.19;100.00;102804.50;1983422;71;39701;-74
2022/02/25 14:24:02;;;;;;;12.40;11.50;;;;;;;11.48;100.00;102813.80;1841895;76;86375;-75
2022/02/25 14:29:59;;;;;;;12.07;11.17;;;;;;;11.63;100.00;102812.77;1883509;73;85456;-75
2022/02/25 14:35:47;;;;;;;13.20;11.90;;;;;;;11.61;100.00;102807.97;1827372;78;86623;-75
2022/02/25 14:41:32;;;;;;;11.10;10.40;;;;;;;11.45;100.00;102822.64;1914665;74;86518;-75
2022/02/25 14:47:26;;;;;;;11.47;10.67;;;;;;;11.17;100.00;102830.85;1910620;73;86319;-70
2022/02/25 14:53:12;;;;;;;11.97;11.17;;;;;;;11.03;100.00;102837.75;1982236;71;39817;-69
2022/02/25 14:58:56;;;;;;;11.57;10.73;;;;;;;10.97;100.00;102831.20;1903676;74;85358;-76
2022/02/25 15:04:40;;;;;;;10.90;10.00;;;;;;;11.08;100.00;102837.89;1858220;76;85542;-76
2022/02/25 15:10:24;;;;;;;10.97;10.07;;;;;;;10.86;100.00;102837.06;1961517;72;85936;-71
2022/02/25 15:16:11;;;;;;;10.47;9.70;;;;;;;10.72;100.00;102842.52;1899636;73;39696;-76
2022/02/25 15:21:58;;;;;;;11.43;10.50;;;;;;;10.58;100.00;102846.58;1851506;76;86043;-71
2022/02/25 15:27:42;;;;;;;12.07;11.17;;;;;;;10.56;100.00;102845.14;1866822;75;85398;-76
2022/02/25 15:33:30;;;;;;;11.73;10.83;;;;;;;10.75;100.00;102847.60;1935981;71;85959;-76
2022/02/25 15:39:14;;;;;;;12.40;11.50;;;;;;;10.87;100.00;102858.20;1984680;71;39596;-76
2022/02/25 15:44:58;;;;;;;12.60;11.43;;;;;;;10.92;100.00;102861.12;1830573;75;86057;-77
2022/02/25 15:50:43;;;;;;;11.80;10.90;;;;;;;10.91;100.00;102853.03;1899659;75;85464;-77
2022/02/25 15:56:27;;;;;;;11.90;11.10;;;;;;;11.40;100.00;102857.30;1913659;74;86108;-72
2022/02/25 16:02:12;;;;;;;12.67;11.40;;;;;;;11.40;100.00;102869.83;1979418;70;39624;-71
2022/02/25 16:11:12;;;;;;;11.80;11.00;;;;;;;11.54;100.00;102876.00;1982932;71;39721;-79
2022/02/25 16:16:57;;;;;;;12.00;11.10;;;;;;;11.34;100.00;102887.47;1886025;74;85743;-72
2022/02/25 16:22:43;;;;;;;11.33;10.53;;;;;;;11.30;100.00;102899.63;1882446;75;85427;-74
2022/02/25 16:28:26;;;;;;;12.00;10.90;;;;;;;10.87;100.00;102911.56;1913875;72;85395;-73
2022/02/25 16:34:10;;;;;;;12.07;11.10;;;;;;;10.61;100.00;102908.63;1979805;71;39629;-74
2022/02/25 16:39:55;;;;;;;11.50;10.70;;;;;;;10.56;100.00;102916.86;1879340;74;86737;-75
2022/02/25 16:45:42;;;;;;;11.37;10.53;;;;;;;10.58;100.00;102916.59;1793098;79;86365;-74
2022/02/25 16:51:26;;;;;;;12.50;11.07;;;;;;;10.39;100.00;102922.75;1942302;72;85463;-72
2022/02/25 16:57:14;;;;;;;12.90;11.80;;;;;;;10.12;100.00;102936.61;1944181;71;39543;-75
2022/02/25 17:02:59;;;;;;;11.77;10.77;;;;;;;10.01;100.00;102938.25;1829402;76;86240;-74
2022/02/25 17:08:43;;;;;;;11.87;11.03;;;;;;;9.68;100.00;102951.06;1881653;74;86539;-72
2022/02/25 17:14:27;;;;;;;12.97;11.87;;;;;;;9.52;100.00;102949.72;1914656;74;86604;-69
2022/02/25 17:20:13;;;;;;;15.27;13.97;;;;;;;9.10;100.00;102957.42;1977296;71;39582;-70
2022/02/25 17:25:58;;;;;;;14.07;12.97;;;;;;;8.88;100.00;102966.63;1836060;76;85369;-71
2022/02/25 17:31:42;;;;;;;16.40;15.00;;;;;;;8.65;100.00;102977.41;1885080;75;85895;-68
2022/02/25 17:37:27;;;;;;;22.90;21.00;;;;;;;8.54;100.00;102989.19;1922774;73;86608;-78
2022/02/25 17:43:11;;;;;;;24.23;22.30;;;;;;;8.22;100.00;102996.50;1983913;71;39702;-73
2022/02/25 17:48:55;;;;;;;24.33;22.43;;;;;;;8.07;100.00;102998.67;1904273;74;86334;-77
2022/02/25 17:54:40;;;;;;;24.57;22.10;;;;;;;8.09;100.00;103012.60;1890812;73;86456;-77
2022/02/25 18:00:25;;;;;;;26.13;23.87;;;;;;;7.87;100.00;103020.00;1937507;73;86190;-68
2022/02/25 18:06:08;;;;;;;33.23;30.90;;;;;;;7.21;100.00;103024.97;1808363;78;86146;-71
2022/02/25 18:11:53;;;;;;;32.30;30.07;;;;;;;7.26;100.00;103029.87;1795492;78;86211;-71
2022/02/25 18:17:37;;;;;;;34.40;32.20;;;;;;;7.19;100.00;103035.90;1908238;73;86585;-70
2022/02/25 18:23:24;;;;;;;36.07;33.43;;;;;;;7.11;100.00;103045.24;1927598;73;86615;-71
2022/02/25 18:29:09;;;;;;;36.73;34.27;;;;;;;7.36;100.00;103037.77;1804289;78;86123;-70
2022/02/25 18:34:53;;;;;;;56.47;52.87;;;;;;;6.80;100.00;103032.52;1802046;78;86331;-73
2022/02/25 18:40:37;;;;;;;57.00;53.60;;;;;;;6.88;100.00;103051.67;1922557;74;86340;-72
2022/02/25 18:46:22;;;;;;;59.17;55.17;;;;;;;6.10;100.00;103048.82;1985315;71;40046;-70
2022/02/25 18:52:07;;;;;;;62.27;58.27;;;;;;;6.06;100.00;103046.66;1841798;76;86146;-72
2022/02/25 18:57:52;;;;;;;60.23;56.20;;;;;;;6.02;100.00;103053.64;1809425;78;86619;-71
2022/02/25 19:03:36;;;;;;;61.00;56.80;;;;;;;6.09;100.00;103044.34;1917469;73;86088;-72
2022/02/25 19:09:20;;;;;;;63.63;59.10;;;;;;;6.02;100.00;103043.46;1985879;71;39594;-72
2022/02/25 19:15:06;;;;;;;60.00;55.90;;;;;;;5.89;100.00;103058.02;1829841;75;86336;-71
2022/02/25 19:20:51;;;;;;;61.00;56.60;;;;;;;5.86;100.00;103067.19;1800845;78;86352;-71
2022/02/25 19:26:35;;;;;;;59.73;55.30;;;;;;;5.18;100.00;103070.56;1908195;73;85568;-70
2022/02/25 19:32:19;;;;;;;64.70;59.80;;;;;;;4.96;100.00;103080.70;1982017;71;39744;-70
2022/02/25 19:38:04;;;;;;;63.63;59.03;;;;;;;4.95;100.00;103066.59;1835852;76;86398;-72
2022/02/25 19:43:48;;;;;;;62.70;57.90;;;;;;;5.06;100.00;103077.09;1896762;73;86494;-72
2022/02/25 19:49:32;;;;;;;63.37;58.97;;;;;;;5.29;100.00;103093.46;1918385;74;85399;-71
2022/02/25 19:55:17;;;;;;;63.57;58.50;;;;;;;5.14;100.00;103090.73;1981528;71;39533;-70
2022/02/25 20:01:01;;;;;;;60.93;56.43;;;;;;;5.09;100.00;103102.89;1858794;76;86193;-79
2022/02/25 20:06:44;;;;;;;59.73;54.90;;;;;;;4.76;100.00;103112.62;1828428;78;85619;-69
2022/02/25 20:12:28;;;;;;;60.33;55.40;;;;;;;4.62;100.00;103104.70;1924343;73;86044;-72
2022/02/25 20:18:15;;;;;;;62.03;56.50;;;;;;;4.57;100.00;103125.08;1943365;71;39537;-71
2022/02/25 20:24:01;;;;;;;64.40;58.70;;;;;;;4.85;100.00;103117.83;1972511;71;85569;-71
2022/02/25 20:29:45;;;;;;;60.83;55.53;;;;;;;5.00;100.00;103118.68;1883513;74;85420;-69
2022/02/25 20:35:31;;;;;;;65.40;59.60;;;;;;;4.58;100.00;103129.52;1912160;72;86358;-71
2022/02/25 20:41:15;;;;;;;62.07;56.90;;;;;;;4.86;100.00;103131.09;1986682;71;39542;-71
2022/02/25 20:46:59;;;;;;;58.33;53.27;;;;;;;4.52;100.00;103119.29;1841039;76;85971;-73
2022/02/25 20:52:44;;;;;;;64.93;58.80;;;;;;;4.49;100.00;103130.13;1877677;75;86189;-71
2022/02/25 20:58:28;;;;;;;65.27;59.10;;;;;;;4.64;100.00;103126.02;1911806;74;86310;-72
2022/02/25 21:04:13;;;;;;;62.67;57.17;;;;;;;4.16;100.00;103136.17;1969716;71;39837;-73
2022/02/25 21:09:55;;;;;;;68.60;62.10;;;;;;;4.20;100.00;103143.87;1885626;74;86524;-71
2022/02/25 21:15:40;;;;;;;69.33;62.93;;;;;;;4.44;100.00;103140.88;1805798;78;85799;-74
2022/02/25 21:21:25;;;;;;;62.47;56.87;;;;;;;4.10;100.00;103149.66;1859837;76;85427;-70
2022/02/25 21:27:11;;;;;;;59.23;54.37;;;;;;;3.49;100.00;103155.30;1984748;71;39731;-72
2022/02/25 21:32:55;;;;;;;56.80;51.77;;;;;;;3.21;100.00;103159.07;1893237;74;85395;-73
2022/02/25 21:38:39;;;;;;;57.80;52.80;;;;;;;3.20;100.00;103164.25;1849488;76;85896;-74
2022/02/25 21:44:24;;;;;;;60.40;55.13;;;;;;;3.20;100.00;103176.09;1919176;73;85916;-72
2022/02/25 21:50:11;;;;;;;57.53;52.20;;;;;;;3.35;100.00;103167.06;1810109;78;86497;-74
2022/02/25 21:55:55;;;;;;;64.03;57.97;;;;;;;3.46;100.00;103173.54;1886024;74;86548;-71
2022/02/25 22:01:40;;;;;;;59.23;53.73;;;;;;;3.41;100.00;103167.22;1881328;74;85572;-71
2022/02/25 22:07:23;;;;;;;61.30;55.73;;;;;;;3.25;100.00;103171.95;1820177;78;85628;-74
2022/02/25 22:13:08;;;;;;;63.27;57.67;;;;;;;3.02;100.00;103178.23;1810499;78;86069;-72
2022/02/25 22:18:53;;;;;;;66.80;61.03;;;;;;;2.99;100.00;103173.62;1810872;78;85499;-72
2022/02/25 22:24:38;;;;;;;62.50;56.87;;;;;;;3.07;100.00;103190.92;1923011;73;86339;-71
2022/02/25 22:30:22;;;;;;;68.00;61.93;;;;;;;3.08;100.00;103185.74;1918590;73;86192;-72
2022/02/25 22:36:08;;;;;;;72.03;65.70;;;;;;;2.74;100.00;103208.52;1842042;76;86309;-71
2022/02/25 22:41:55;;;;;;;71.87;65.47;;;;;;;3.13;100.00;103207.17;1884547;74;86425;-71
2022/02/25 22:47:40;;;;;;;74.90;68.23;;;;;;;3.44;100.00;103203.07;1851950;76;86604;-70
2022/02/25 22:59:35;;;;;;;68.80;62.73;;;;;;;3.04;100.00;103212.36;1927438;73;86104;-71
2022/02/25 23:11:23;;;;;;;68.67;62.33;;;;;;;3.06;100.00;103207.56;1938903;71;39832;-71
2022/02/25 23:17:08;;;;;;;66.27;60.57;;;;;;;3.56;100.00;103212.61;1954415;72;86811;-71
2022/02/25 23:22:53;;;;;;;66.37;60.17;;;;;;;3.64;100.00;103210.67;1801179;78;86307;-70
2022/02/25 23:28:39;;;;;;;68.37;62.77;;;;;;;2.99;100.00;103224.42;1914196;73;86339;-70
2022/02/25 23:34:24;;;;;;;68.83;62.80;;;;;;;3.05;100.00;103219.57;1969761;72;86499;-70
2022/02/25 23:40:10;;;;;;;64.17;59.10;;;;;;;2.87;100.00;103242.31;1796561;78;86027;-70
2022/02/25 23:45:55;;;;;;;63.13;57.63;;;;;;;2.92;100.00;103247.59;1888267;74;85449;-71
2022/02/25 23:51:39;;;;;;;64.00;58.60;;;;;;;3.19;100.00;103246.30;1869844;75;86497;-72
2022/02/25 23:57:25;;;;;;;67.47;61.60;;;;;;;3.46;100.00;103244.46;1918903;73;85960;-71
